Humidity-temperature Sensor

Selected Measurement Type: Relative Humidity

 
Relative Humidity [%]     6 entries per hour
Showing data from 4/10/2023 (00:00:00 Z) to 4/9/2023 (00:01:00 Z)
Previous Next [ Day | 3-Days | 7-Days ]
First Last
Prev [ Day | 3-Days | 7-Days ] Next
First Last

Start Time:     :
End Time:     :     
Time (in GMT) :00 :50 :40 :30 :20 :10
Previous Next [ Day | 3-Days | 7-Days ]
First Last
Prev [ Day | 3-Days | 7-Days ] Next
First Last


123 => good data
MM => data is determined as missing
-- => data not received/configured
Back to Top Back to Top
4/10/2023 00:00 to 23:10 86.08 86.50 86.06 85.86 85.30 84.49
4/9/2023 23:00 to 22:10 87.25 86.12 87.35 88.37 88.37 88.31
4/9/2023 22:00 to 21:10 88.37 87.27 86.02 86.08 85.96 85.42
4/9/2023 21:00 to 20:10 87.21 89.40 86.69 88.31 87.73 88.64
4/9/2023 20:00 to 19:10 88.09 88.84 89.26 88.59 88.60 88.80
4/9/2023 19:00 to 18:10 89.72 86.97 86.06 86.69 86.85 87.73
4/9/2023 18:00 to 17:10 86.73 86.64 86.60 86.52 86.50 86.12
4/9/2023 17:00 to 16:10 87.49 86.32 85.72 86.64 85.98 85.52
4/9/2023 16:00 to 15:10 86.22 85.96 85.52 85.34 85.24 84.41
4/9/2023 15:00 to 14:10 84.57 84.96 85.54 85.40 86.62 86.36
4/9/2023 14:00 to 13:10 86.42 87.77 87.77 87.75 88.25 87.19
4/9/2023 13:00 to 12:10 89.12 88.90 89.34 88.88 87.23 86.20
4/9/2023 12:00 to 11:10 86.00 87.47 87.45 86.30 86.81 86.69
4/9/2023 11:00 to 10:10 87.89 87.41 86.89 86.12 86.02 86.52
4/9/2023 10:00 to 9:10 86.46 90.54 90.26 91.81 91.87 90.10
4/9/2023 09:00 to 8:10 89.98 90.38 90.52 91.87 93.26 93.74
4/9/2023 08:00 to 7:10 93.40 92.80 91.87 87.15 87.57 88.21
4/9/2023 07:00 to 6:10 82.06 85.44 83.37 81.12 88.39 85.14
4/9/2023 06:00 to 5:10 85.36 86.06 85.12 85.18 84.33 83.81
4/9/2023 05:00 to 4:10 84.27 84.03 83.79 84.65 85.00 84.31
4/9/2023 04:00 to 3:10 84.84 85.48 85.56 85.24 84.37 84.84
4/9/2023 03:00 to 2:10 84.67 84.86 84.67 84.59 84.45 82.93
4/9/2023 02:00 to 1:10 83.15 83.69 82.68 82.89 82.99 83.25
4/9/2023 01:00 to 0:10 84.59 82.32 83.19 82.32 82.91 83.29